Kezdőlap
METAR-TAF:

METAR-TAF

Repülőterek :

Koror, Babeldaob, Palau

földrajzi szélesség: 07-22N, földrajzi hosszúság: 134-32E, magasság: 54 m

Jelenlegi meteorológiai megfigyelések

A jelentés 18 perccel ezelõtt készült, 18:50 UTC
Délnyugati szél 3 kt
Hőmérséklet 27°C
Páratartalom 84%
Légköri nyomás 1009 hPa
Látótávolság: 22.5 km
Szakadozott felhőzet 1600 lábon
Szakadozott felhőzet 30000 lábon

METAR: PTRO 191850Z 22003KT 14SM BKN016 BKN300 27/24 A2979

Idő: 04:08 (19:08 UTC)

Előrejelzés

A jelentés 1 órával és 48 perccel ezelõtt készült, 17:20 UTC
Az előrejelzés 19-én 18 óra UTC és 20-én 18 óra UTC között érvényes
Dél-délnyugati szél 10 kt
Látótávolság: 10 km
Szórványos felhőzet 1600 lábon
Szakadozott felhőzet 12000 lábon
Záporok a közelben

TAF: PTRO 191720Z 1918/2018 20010KT P6SM VCSH SCT016 BKN120

Meteorológiai megfigyelések és előrejelzések több, mint 4000 repülőtéren (METAR és TAF jelentéseket).

A térképen piros és sárga pontok jelzik az elérhető meteorológiai állomásokat.

Mozgassa az egeret a pont fölött, hogy megjelenjen az állomás neve.

Azután kattintson az időjárási megfigyelések és előrejelzések megtekintéséhez.

A térkép megváltoztatása: kattintson a fekete keresztel jelölt zöld gombra ráközelítéshez, a vonallal jelölt zöld gombra távolításhoz, vagy a zöld nyilakra a szomszédos térképek eléréséhez.


METAR-TAF: